Time;durP1;ratioP1;P1;durP2;ratioP2;P2;SDS_P1;SDS_P2;PMS_P1;PMS_P2;Temp;Humidity;BMP_temperature;BMP_pressure;BME280_temperature;BME280_humidity;BME280_pressure;Samples;Min_cycle;Max_cycle;Signal;HPM_P1;HPM_P2
2023/11/15 00:01:18;;;;;;;19.73;4.60;;;;;;;10.60;100.00;100662.75;4924933;28;20442;-65
2023/11/15 00:04:08;;;;;;;20.30;4.68;;;;;;;10.58;100.00;100663.06;4923377;29;20047;-65
2023/11/15 00:06:56;;;;;;;20.63;4.88;;;;;;;10.57;100.00;100666.03;4936600;29;20054;-67
2023/11/15 00:09:44;;;;;;;18.83;4.95;;;;;;;10.58;100.00;100679.41;4909816;29;20433;-66
2023/11/15 00:12:33;;;;;;;19.02;4.50;;;;;;;10.57;100.00;100672.28;4936697;29;20131;-64
2023/11/15 00:15:21;;;;;;;20.10;5.00;;;;;;;10.57;100.00;100672.28;4923014;29;20043;-65
2023/11/15 00:18:09;;;;;;;19.35;4.68;;;;;;;10.56;100.00;100681.56;4935842;29;20393;-68
2023/11/15 00:20:57;;;;;;;17.70;4.40;;;;;;;10.56;100.00;100678.84;4919465;29;20043;-66
2023/11/15 00:23:45;;;;;;;22.98;4.57;;;;;;;10.56;100.00;100695.19;4902456;29;20142;-66
2023/11/15 00:26:33;;;;;;;18.75;4.25;;;;;;;10.57;100.00;100698.72;4913946;29;20054;-65
2023/11/15 00:29:21;;;;;;;16.35;4.57;;;;;;;10.56;100.00;100681.56;4921453;29;20071;-66
2023/11/15 00:32:10;;;;;;;19.80;4.78;;;;;;;10.56;100.00;100689.75;4936318;29;20504;-65
2023/11/15 00:34:58;;;;;;;18.45;4.82;;;;;;;10.55;100.00;100690.81;4937738;28;20040;-65
2023/11/15 00:37:46;;;;;;;20.85;4.32;;;;;;;10.55;100.00;100696.25;4922810;29;20044;-66
2023/11/15 00:40:37;;;;;;;14.80;3.90;;;;;;;10.55;100.00;100700.91;4937463;29;20055;-66
2023/11/15 00:43:25;;;;;;;15.70;4.03;;;;;;;10.57;100.00;100707.72;4908293;29;20072;-66
2023/11/15 00:46:15;;;;;;;17.70;4.47;;;;;;;10.57;100.00;100696.81;4939984;29;20064;-66
2023/11/15 00:49:03;;;;;;;19.17;4.53;;;;;;;10.56;100.00;100711.53;4910194;29;20071;-65
2023/11/15 00:51:52;;;;;;;13.15;4.13;;;;;;;10.58;100.00;100701.19;4917138;29;20066;-66
2023/11/15 00:54:41;;;;;;;22.85;4.50;;;;;;;10.57;100.00;100696.81;4917570;29;20123;-65
2023/11/15 00:57:30;;;;;;;16.95;4.13;;;;;;;10.58;100.00;100706.63;4933634;29;20142;-66
2023/11/15 01:00:24;;;;;;;18.90;4.13;;;;;;;10.57;100.00;100728.69;4921417;29;20373;-66
2023/11/15 01:03:15;;;;;;;20.90;4.72;;;;;;;10.56;100.00;100717.00;4923895;29;20043;-65
2023/11/15 01:06:03;;;;;;;17.40;4.20;;;;;;;10.57;100.00;100732.22;4940241;29;20171;-67
2023/11/15 01:08:52;;;;;;;15.55;4.30;;;;;;;10.57;100.00;100732.22;4938822;29;20047;-65
2023/11/15 01:11:41;;;;;;;16.10;4.22;;;;;;;10.56;100.00;100736.06;4925427;29;20063;-65
2023/11/15 01:14:29;;;;;;;14.20;3.60;;;;;;;10.56;100.00;100730.59;4924722;29;20130;-66
2023/11/15 01:17:17;;;;;;;18.17;4.10;;;;;;;10.57;100.00;100737.69;4910293;29;20032;-67
2023/11/15 01:20:06;;;;;;;11.88;3.72;;;;;;;10.58;100.00;100746.66;4926160;29;20048;-67
2023/11/15 01:22:54;;;;;;;16.40;4.00;;;;;;;10.57;100.00;100743.13;4925031;29;20035;-67
2023/11/15 01:25:42;;;;;;;18.60;4.07;;;;;;;10.58;100.00;100752.97;4912197;29;20039;-66
2023/11/15 01:28:30;;;;;;;17.20;3.90;;;;;;;10.58;100.00;100765.75;4931917;29;20055;-66
2023/11/15 01:31:18;;;;;;;18.17;4.07;;;;;;;10.56;100.00;100768.75;4906282;29;20135;-67
2023/11/15 01:34:06;;;;;;;15.85;4.13;;;;;;;10.57;100.00;100780.47;4924624;29;20513;-65
2023/11/15 01:36:54;;;;;;;20.10;5.20;;;;;;;10.57;100.00;100778.53;4905304;29;20106;-66
2023/11/15 01:39:42;;;;;;;16.85;4.43;;;;;;;10.57;100.00;100784.00;4925050;29;20055;-65
2023/11/15 01:42:30;;;;;;;17.85;4.25;;;;;;;10.59;100.00;100790.00;4927435;28;20097;-67
2023/11/15 01:45:19;;;;;;;16.95;4.10;;;;;;;10.59;100.00;100795.44;4925896;28;20506;-66
2023/11/15 01:48:07;;;;;;;15.38;3.80;;;;;;;10.60;100.00;100793.53;4923841;29;20043;-66
2023/11/15 01:50:56;;;;;;;14.63;4.05;;;;;;;10.60;100.00;100799.78;4926354;28;20051;-66
2023/11/15 01:53:44;;;;;;;19.85;4.65;;;;;;;10.60;100.00;100807.97;4924801;29;20048;-66
2023/11/15 01:56:32;;;;;;;16.17;4.07;;;;;;;10.60;100.00;100809.88;4924510;29;20404;-67
2023/11/15 01:59:20;;;;;;;16.58;4.22;;;;;;;10.62;100.00;100813.16;4910272;29;20062;-66
2023/11/15 02:02:08;;;;;;;20.75;4.38;;;;;;;10.62;100.00;100829.50;4911902;29;20480;-67
2023/11/15 02:04:56;;;;;;;15.32;3.80;;;;;;;10.61;100.00;100836.88;4956358;29;20065;-64
2023/11/15 02:07:46;;;;;;;15.77;4.18;;;;;;;10.61;100.00;100836.06;4951748;29;20058;-63
2023/11/15 02:10:35;;;;;;;13.10;3.83;;;;;;;10.60;100.00;100834.41;4915012;29;20051;-67
2023/11/15 02:13:25;;;;;;;14.82;3.38;;;;;;;10.58;100.00;100839.28;4939876;28;20047;-65
2023/11/15 02:16:13;;;;;;;19.92;4.43;;;;;;;10.59;100.00;100839.03;4935682;29;20066;-62
2023/11/15 02:19:01;;;;;;;15.95;4.20;;;;;;;10.58;100.00;100842.88;4933685;28;20052;-63
2023/11/15 02:21:49;;;;;;;16.10;4.15;;;;;;;10.60;100.00;100848.84;4943737;29;20047;-66
2023/11/15 02:24:37;;;;;;;16.70;4.32;;;;;;;10.61;100.00;100853.22;4925345;29;20040;-66
2023/11/15 02:27:25;;;;;;;17.27;4.38;;;;;;;10.61;100.00;100858.66;4927842;29;20091;-66
2023/11/15 02:30:14;;;;;;;17.52;4.43;;;;;;;10.61;100.00;100858.66;4919069;29;20106;-66
2023/11/15 02:33:02;;;;;;;15.75;4.15;;;;;;;10.61;100.00;100869.56;4905407;29;20075;-67
2023/11/15 02:35:50;;;;;;;12.15;3.40;;;;;;;10.61;100.00;100863.31;4906777;29;20051;-67
2023/11/15 02:38:39;;;;;;;14.27;3.53;;;;;;;10.61;100.00;100872.28;4937664;29;20469;-67
2023/11/15 02:41:28;;;;;;;15.70;4.10;;;;;;;10.59;100.00;100874.47;4938265;29;20047;-67
2023/11/15 02:44:16;;;;;;;17.20;3.80;;;;;;;10.60;100.00;100873.38;4938045;29;20187;-64
2023/11/15 02:47:04;;;;;;;13.98;3.95;;;;;;;10.59;100.00;100874.47;4909487;29;20050;-67
2023/11/15 02:49:52;;;;;;;17.52;3.80;;;;;;;10.60;100.00;100876.09;4929771;29;20081;-66
2023/11/15 02:52:41;;;;;;;19.77;5.03;;;;;;;10.59;100.00;100877.19;4946573;28;20048;-66
2023/11/15 02:55:29;;;;;;;18.52;3.97;;;;;;;10.59;100.00;100871.75;4921647;29;20055;-67
2023/11/15 02:58:18;;;;;;;19.13;4.78;;;;;;;10.58;100.00;100875.56;4923698;29;20087;-67
2023/11/15 03:01:06;;;;;;;15.75;3.92;;;;;;;10.59;100.00;100879.91;4938390;29;20040;-66
2023/11/15 03:03:54;;;;;;;14.38;4.07;;;;;;;10.58;100.00;100880.16;4924680;28;20047;-66
2023/11/15 03:06:43;;;;;;;14.32;3.40;;;;;;;10.58;100.00;100885.63;4922939;29;20051;-65
2023/11/15 03:09:31;;;;;;;15.73;3.97;;;;;;;10.57;100.00;100890.25;4923153;28;20612;-67
2023/11/15 03:12:19;;;;;;;17.15;4.50;;;;;;;10.56;100.00;100891.34;4955566;29;20134;-66
2023/11/15 03:15:08;;;;;;;16.10;4.38;;;;;;;10.57;100.00;100889.44;4969130;28;20126;-65
2023/11/15 03:17:56;;;;;;;23.45;4.85;;;;;;;10.57;100.00;100889.44;4934836;29;20043;-65
2023/11/15 03:20:44;;;;;;;14.60;3.80;;;;;;;10.58;100.00;100897.34;4935063;29;20055;-65
2023/11/15 03:23:32;;;;;;;18.80;4.00;;;;;;;10.59;100.00;100900.91;4923395;29;20047;-66
2023/11/15 03:26:21;;;;;;;21.48;4.28;;;;;;;10.57;100.00;100901.16;4921785;29;20102;-66
2023/11/15 03:29:09;;;;;;;16.15;4.43;;;;;;;10.57;100.00;100895.69;4950503;28;20047;-66
2023/11/15 03:31:57;;;;;;;17.50;4.57;;;;;;;10.57;100.00;100898.44;4937080;28;20122;-66
2023/11/15 03:34:45;;;;;;;17.63;3.95;;;;;;;10.56;100.00;100904.97;4935829;29;20047;-66
2023/11/15 03:37:33;;;;;;;14.07;3.78;;;;;;;10.58;100.00;100902.81;4898456;29;20153;-66
2023/11/15 03:40:21;;;;;;;13.98;3.90;;;;;;;10.58;100.00;100910.97;4935079;29;20051;-66
2023/11/15 03:43:10;;;;;;;17.42;3.83;;;;;;;10.58;100.00;100913.72;4936551;29;20142;-65
2023/11/15 03:45:59;;;;;;;13.25;3.50;;;;;;;10.57;100.00;100914.78;4897007;29;20039;-65
2023/11/15 03:48:47;;;;;;;12.80;3.60;;;;;;;10.57;100.00;100917.50;4934766;29;20043;-65
2023/11/15 03:51:36;;;;;;;18.67;4.47;;;;;;;10.56;100.00;100920.47;4904239;29;20449;-64
2023/11/15 03:54:24;;;;;;;21.65;4.97;;;;;;;10.57;100.00;100917.50;4929550;29;20043;-65
2023/11/15 03:57:12;;;;;;;15.20;4.07;;;;;;;10.57;100.00;100922.13;4916877;29;20079;-65
2023/11/15 04:00:00;;;;;;;19.75;4.65;;;;;;;10.57;100.00;100920.22;4934753;29;20130;-66
2023/11/15 04:02:49;;;;;;;18.95;4.40;;;;;;;10.58;100.00;100927.31;4923959;29;20044;-66
2023/11/15 04:05:37;;;;;;;16.98;4.40;;;;;;;10.56;100.00;100924.03;4936756;28;20055;-66
2023/11/15 04:08:27;;;;;;;21.10;4.40;;;;;;;10.56;100.00;100931.38;4922885;29;20050;-67
2023/11/15 04:11:16;;;;;;;13.65;4.00;;;;;;;10.53;100.00;100938.19;4936335;29;20047;-66
2023/11/15 04:14:04;;;;;;;16.05;3.88;;;;;;;10.55;100.00;100937.91;4934317;29;20114;-66
2023/11/15 04:16:52;;;;;;;18.35;4.25;;;;;;;10.54;100.00;100942.56;4917327;29;20048;-66
2023/11/15 04:19:41;;;;;;;19.00;4.93;;;;;;;10.54;100.00;100945.28;4936832;28;20043;-66
2023/11/15 04:22:32;;;;;;;24.65;5.05;;;;;;;10.54;100.00;100953.44;4923093;29;20635;-67
2023/11/15 04:25:20;;;;;;;21.17;4.28;;;;;;;10.54;100.00;100958.09;4937202;29;20050;-66
2023/11/15 04:28:08;;;;;;;14.95;4.53;;;;;;;10.54;100.00;100960.81;4938962;29;20098;-66
2023/11/15 04:30:56;;;;;;;17.60;4.97;;;;;;;10.54;100.00;100961.63;4913355;29;20040;-65
2023/11/15 04:33:45;;;;;;;21.20;5.07;;;;;;;10.56;100.00;100962.19;4924456;29;20079;-66
2023/11/15 04:36:34;;;;;;;17.02;4.80;;;;;;;10.55;100.00;100967.88;4910839;29;20043;-66
2023/11/15 04:39:24;;;;;;;17.95;4.95;;;;;;;10.55;100.00;100974.16;4924893;28;20048;-65
2023/11/15 04:42:12;;;;;;;16.95;4.43;;;;;;;10.56;100.00;100981.25;4935338;29;20525;-66
2023/11/15 04:45:01;;;;;;;14.90;4.53;;;;;;;10.55;100.00;100979.59;4948837;29;20094;-66
2023/11/15 04:47:50;;;;;;;19.48;4.57;;;;;;;10.55;100.00;100979.59;4948679;29;20079;-66
2023/11/15 04:50:38;;;;;;;21.02;4.95;;;;;;;10.56;100.00;100991.31;4933951;29;20038;-66
2023/11/15 04:53:26;;;;;;;15.15;3.88;;;;;;;10.54;100.00;100991.59;4934902;29;20168;-66
2023/11/15 04:56:14;;;;;;;20.27;4.78;;;;;;;10.54;100.00;100991.59;4895644;29;1169147;-67
2023/11/15 04:59:02;;;;;;;14.02;4.43;;;;;;;10.55;100.00;100992.41;4936245;29;20046;-66
2023/11/15 05:01:50;;;;;;;16.42;4.80;;;;;;;10.55;100.00;100993.22;4921601;29;20484;-66
2023/11/15 05:04:38;;;;;;;17.13;4.80;;;;;;;10.55;100.00;100990.50;4932561;29;20040;-67
2023/11/15 05:07:26;;;;;;;15.10;4.03;;;;;;;10.55;100.00;100995.13;4920755;29;20124;-66
2023/11/15 05:10:14;;;;;;;16.13;4.03;;;;;;;10.54;100.00;100997.03;4934426;29;20071;-66
2023/11/15 05:13:04;;;;;;;20.27;4.78;;;;;;;10.51;100.00;101003.03;4933385;29;20167;-66
2023/11/15 05:15:52;;;;;;;16.77;4.40;;;;;;;10.51;100.00;101000.31;4933906;29;20044;-66
2023/11/15 05:18:40;;;;;;;13.57;3.95;;;;;;;10.51;100.00;101011.19;4921812;29;20131;-67
2023/11/15 05:21:28;;;;;;;11.70;3.72;;;;;;;10.51;100.00;101000.31;4935403;29;20199;-67
2023/11/15 05:24:16;;;;;;;13.88;3.85;;;;;;;10.50;100.00;101011.47;4935137;29;20195;-67
2023/11/15 05:27:04;;;;;;;13.27;4.00;;;;;;;10.48;100.00;101003.53;4922250;29;20084;-67
2023/11/15 05:29:52;;;;;;;17.75;4.57;;;;;;;10.49;100.00;101009.81;4900834;29;20047;-66
2023/11/15 05:32:40;;;;;;;15.00;4.45;;;;;;;10.50;100.00;101025.88;4908825;29;20043;-67
2023/11/15 05:35:29;;;;;;;18.02;4.72;;;;;;;10.51;100.00;101019.38;4898495;29;20067;-67
2023/11/15 05:38:17;;;;;;;19.10;4.80;;;;;;;10.52;100.00;101021.00;4919345;29;20036;-67
2023/11/15 05:41:05;;;;;;;18.60;5.65;;;;;;;10.50;100.00;101031.34;4941990;29;20122;-67
2023/11/15 05:43:53;;;;;;;16.58;4.70;;;;;;;10.51;100.00;101022.09;4948016;28;20604;-67
2023/11/15 05:46:41;;;;;;;18.65;4.95;;;;;;;10.52;100.00;101028.38;4915072;29;20130;-66
2023/11/15 05:49:30;;;;;;;16.83;4.93;;;;;;;10.50;100.00;101016.91;4932493;29;20090;-67
2023/11/15 05:52:18;;;;;;;18.40;5.30;;;;;;;10.48;100.00;101033.50;4937464;29;20403;-67
2023/11/15 05:55:08;;;;;;;20.02;5.65;;;;;;;10.47;100.00;101026.44;4931538;29;20054;-66
2023/11/15 05:57:56;;;;;;;18.02;5.65;;;;;;;10.48;100.00;101032.69;4932667;28;20056;-67
2023/11/15 06:00:44;;;;;;;16.80;5.80;;;;;;;10.48;100.00;101030.78;4918805;29;20044;-67
2023/11/15 06:03:32;;;;;;;18.85;6.00;;;;;;;10.48;100.00;101030.78;4920397;29;20071;-65
2023/11/15 06:06:20;;;;;;;19.90;5.85;;;;;;;10.47;100.00;101031.06;4879756;29;20048;-66
2023/11/15 06:09:13;;;;;;;19.27;6.15;;;;;;;10.46;100.00;101032.94;4920725;29;20131;-68
2023/11/15 06:12:01;;;;;;;14.57;5.63;;;;;;;10.44;100.00;101041.38;4927466;29;20432;-66
2023/11/15 06:14:49;;;;;;;20.20;5.57;;;;;;;10.44;100.00;101035.13;4898395;29;20480;-65
2023/11/15 06:17:41;;;;;;;16.38;5.38;;;;;;;10.45;100.00;101044.94;4923168;29;20031;-67
2023/11/15 06:20:29;;;;;;;16.48;5.05;;;;;;;10.44;100.00;101043.31;4938813;29;20047;-66
2023/11/15 06:23:18;;;;;;;17.80;5.40;;;;;;;10.43;100.00;101042.44;4924192;29;20502;-67
2023/11/15 06:26:11;;;;;;;18.90;5.80;;;;;;;10.40;100.00;101053.06;4937256;29;20515;-67
2023/11/15 06:29:01;;;;;;;15.82;4.90;;;;;;;10.40;100.00;101044.91;4928490;29;20051;-67
2023/11/15 06:31:58;;;;;;;16.98;4.28;;;;;;;10.38;100.00;101049.78;4948793;29;20054;-65
2023/11/15 06:34:46;;;;;;;15.13;5.00;;;;;;;10.37;100.00;101048.16;4951226;29;20107;-65
2023/11/15 06:37:34;;;;;;;15.73;4.72;;;;;;;10.35;100.00;101053.03;4930507;28;20330;-67
2023/11/15 06:40:22;;;;;;;21.58;5.00;;;;;;;10.34;100.00;101054.94;4931129;28;20055;-65
2023/11/15 06:43:11;;;;;;;18.50;5.25;;;;;;;10.35;100.00;101061.19;4935223;29;20052;-59
2023/11/15 06:45:59;;;;;;;17.08;5.70;;;;;;;10.35;100.00;101062.03;4938946;29;20058;-64
2023/11/15 06:48:47;;;;;;;15.23;4.85;;;;;;;10.37;100.00;101065.31;4919918;28;20516;-65
2023/11/15 06:51:39;;;;;;;23.77;5.28;;;;;;;10.38;100.00;101071.56;4919489;29;20048;-68
2023/11/15 06:54:27;;;;;;;20.83;5.32;;;;;;;10.35;100.00;101072.09;4902208;29;20044;-66
2023/11/15 06:57:16;;;;;;;17.35;4.70;;;;;;;10.32;100.00;101087.06;4934640;29;20090;-67
2023/11/15 07:00:12;;;;;;;17.30;5.00;;;;;;;10.38;100.00;101093.34;4923847;29;20051;-64
2023/11/15 07:03:03;;;;;;;20.88;5.72;;;;;;;10.33;100.00;101096.03;4936287;29;20083;-65
2023/11/15 07:05:52;;;;;;;17.83;5.22;;;;;;;10.33;100.00;101093.31;4596996;28;10000163;-66
2023/11/15 07:08:40;;;;;;;18.40;5.53;;;;;;;10.32;100.00;101103.41;4920620;29;20047;-65
2023/11/15 07:11:28;;;;;;;22.17;6.32;;;;;;;10.36;100.00;101104.50;4902363;29;20047;-66
2023/11/15 07:14:16;;;;;;;19.75;5.40;;;;;;;10.35;100.00;101104.78;4945577;28;20050;-66
2023/11/15 07:17:07;;;;;;;14.43;4.57;;;;;;;10.37;100.00;101110.78;4935153;29;20059;-68
2023/11/15 07:19:55;;;;;;;17.50;5.03;;;;;;;10.36;100.00;101120.03;4925004;29;20132;-66
2023/11/15 07:22:44;;;;;;;20.58;4.85;;;;;;;10.34;100.00;101117.59;4921798;29;20039;-66
2023/11/15 07:25:33;;;;;;;24.92;5.43;;;;;;;10.33;100.00;101112.38;4933653;29;20051;-67
2023/11/15 07:28:23;;;;;;;16.13;5.10;;;;;;;10.31;100.00;101131.69;4916115;29;20048;-66
2023/11/15 07:31:14;;;;;;;21.30;5.32;;;;;;;10.31;100.00;101126.25;4932816;29;20040;-68
2023/11/15 07:34:05;;;;;;;19.88;5.85;;;;;;;10.28;100.00;101139.56;4905152;29;20122;-67
2023/11/15 07:36:55;;;;;;;15.38;5.00;;;;;;;10.28;100.00;101137.66;4933147;29;20122;-67
2023/11/15 07:39:43;;;;;;;15.48;4.65;;;;;;;10.30;100.00;101130.06;4933007;29;20074;-67
2023/11/15 07:42:34;;;;;;;21.00;6.55;;;;;;;10.30;100.00;101140.16;4919915;29;20078;-66
2023/11/15 07:45:26;;;;;;;18.98;5.05;;;;;;;10.36;100.00;101150.00;4933285;29;20047;-67
2023/11/15 07:48:15;;;;;;;15.88;4.88;;;;;;;10.36;100.00;101144.53;4932882;29;20416;-67
2023/11/15 07:51:05;;;;;;;14.25;4.65;;;;;;;10.39;100.00;101144.03;4934579;29;20051;-66
2023/11/15 07:53:54;;;;;;;18.83;5.28;;;;;;;10.36;100.00;101141.81;4918253;29;20063;-70
2023/11/15 07:56:45;;;;;;;16.83;5.03;;;;;;;10.23;100.00;101156.66;4913178;29;20169;-67
2023/11/15 07:59:34;;;;;;;14.93;4.40;;;;;;;10.17;100.00;101163.97;4934235;29;20046;-67
2023/11/15 08:02:22;;;;;;;15.70;4.97;;;;;;;10.14;100.00;101164.47;4921122;29;20058;-67
2023/11/15 08:05:10;;;;;;;13.43;3.65;;;;;;;10.14;100.00;101166.38;4936166;29;20052;-66
2023/11/15 08:07:58;;;;;;;14.80;4.63;;;;;;;10.17;100.00;101176.72;4935034;29;20055;-66
2023/11/15 08:10:48;;;;;;;12.32;4.55;;;;;;;10.21;100.00;101175.97;4915709;29;20048;-66
2023/11/15 08:13:38;;;;;;;19.10;5.13;;;;;;;10.19;100.00;101177.31;4942184;29;20058;-67
2023/11/15 08:16:28;;;;;;;16.05;4.90;;;;;;;10.21;100.00;101180.59;4948254;28;20047;-66
2023/11/15 08:19:20;;;;;;;13.45;4.00;;;;;;;10.21;100.00;101183.31;4936698;29;20052;-68
2023/11/15 08:22:08;;;;;;;22.45;4.97;;;;;;;10.26;100.00;101198.91;4936534;29;20191;-67
2023/11/15 08:24:55;;;;;;;13.13;3.88;;;;;;;10.28;100.00;101200.31;4906402;29;20119;-66
2023/11/15 08:27:44;;;;;;;15.88;4.93;;;;;;;10.31;100.00;101197.06;4921758;29;20047;-67
2023/11/15 08:30:33;;;;;;;17.52;5.30;;;;;;;10.31;100.00;101191.63;4926073;29;20059;-67
2023/11/15 08:33:21;;;;;;;18.25;5.40;;;;;;;10.31;100.00;101197.06;4935779;29;20048;-66
2023/11/15 08:36:10;;;;;;;18.67;6.07;;;;;;;10.33;100.00;101210.44;4934896;28;20049;-66
2023/11/15 08:38:59;;;;;;;17.75;5.30;;;;;;;10.34;100.00;101206.63;4936531;28;20048;-66
2023/11/15 08:41:48;;;;;;;19.77;5.55;;;;;;;10.37;100.00;101206.13;4921938;29;20051;-66
2023/11/15 08:44:41;;;;;;;19.08;5.10;;;;;;;10.34;100.00;101202.03;4936459;29;20055;-66
2023/11/15 08:47:30;;;;;;;17.02;4.90;;;;;;;10.34;100.00;101206.63;4922445;29;20415;-66
2023/11/15 08:50:20;;;;;;;19.75;5.72;;;;;;;10.40;100.00;101211.88;4927499;28;20056;-66
2023/11/15 08:53:10;;;;;;;15.23;5.13;;;;;;;10.42;100.00;101208.91;4936009;29;20063;-65
2023/11/15 08:55:58;;;;;;;18.60;4.93;;;;;;;10.42;100.00;101208.91;4915179;29;20083;-68
2023/11/15 08:58:46;;;;;;;14.85;4.68;;;;;;;10.45;100.00;101213.81;4929114;29;20063;-66
2023/11/15 09:01:35;;;;;;;16.95;4.90;;;;;;;10.46;100.00;101215.47;4932733;29;20444;-66
2023/11/15 09:04:22;;;;;;;17.42;4.90;;;;;;;10.51;100.00;101222.84;4935244;29;20058;-66
2023/11/15 09:07:12;;;;;;;16.50;4.68;;;;;;;10.48;100.00;101218.75;4948101;29;20407;-66
2023/11/15 09:10:00;;;;;;;23.20;4.75;;;;;;;10.50;100.00;101223.94;4923185;29;20048;-66
2023/11/15 09:12:49;;;;;;;15.68;5.07;;;;;;;10.49;100.00;101220.41;4932356;29;20118;-64
2023/11/15 09:15:37;;;;;;;14.35;4.07;;;;;;;10.48;100.00;101229.66;4931191;29;20051;-66
2023/11/15 09:18:27;;;;;;;16.98;4.70;;;;;;;10.49;100.00;101220.41;4928938;29;20066;-66
2023/11/15 09:21:16;;;;;;;16.23;4.10;;;;;;;10.51;100.00;101226.44;4921643;28;20052;-67
2023/11/15 09:24:05;;;;;;;17.38;4.60;;;;;;;10.51;100.00;101220.97;4910602;29;20123;-66
2023/11/15 09:26:53;;;;;;;13.82;4.25;;;;;;;10.54;100.00;101223.19;4939640;29;20055;-66
2023/11/15 09:29:41;;;;;;;19.30;4.75;;;;;;;10.55;100.00;101227.53;4924289;29;20051;-68
2023/11/15 09:32:29;;;;;;;21.25;5.20;;;;;;;10.54;100.00;101231.34;4937649;29;20040;-66
2023/11/15 09:35:23;;;;;;;20.13;4.72;;;;;;;10.52;100.00;101235.41;4938242;29;20048;-67
2023/11/15 09:38:13;;;;;;;17.77;4.90;;;;;;;10.49;100.00;101236.75;4919607;29;20047;-66
2023/11/15 09:41:04;;;;;;;17.83;4.55;;;;;;;10.52;100.00;101236.25;4939285;29;20457;-67
2023/11/15 09:43:55;;;;;;;16.08;4.60;;;;;;;10.55;100.00;101245.78;4925134;29;20138;-67
2023/11/15 09:46:45;;;;;;;20.48;4.88;;;;;;;10.58;100.00;101246.13;4925354;29;20075;-66
2023/11/15 09:49:35;;;;;;;17.13;4.30;;;;;;;10.60;100.00;101243.94;4939314;29;20087;-67
2023/11/15 09:52:27;;;;;;;16.65;4.90;;;;;;;10.65;100.00;101245.88;4918836;29;20277;-67
2023/11/15 09:55:22;;;;;;;19.45;4.70;;;;;;;10.67;100.00;101251.91;4919416;29;20135;-67
2023/11/15 09:58:12;;;;;;;15.43;4.72;;;;;;;10.69;100.00;101259.84;4915314;29;20060;-68
2023/11/15 10:01:02;;;;;;;21.77;5.65;;;;;;;10.66;100.00;101242.91;4905889;29;20560;-69
2023/11/15 10:03:50;;;;;;;18.95;5.35;;;;;;;10.65;100.00;101260.38;4929964;29;20062;-66
2023/11/15 10:06:40;;;;;;;17.55;4.97;;;;;;;10.65;100.00;101257.63;4923641;29;20135;-66
2023/11/15 10:09:39;;;;;;;17.00;4.75;;;;;;;10.64;100.00;101261.41;4938054;29;20051;-66
2023/11/15 10:12:31;;;;;;;13.35;3.50;;;;;;;10.66;100.00;101253.81;4917712;29;20080;-66
2023/11/15 10:15:29;;;;;;;21.98;5.18;;;;;;;10.71;100.00;101268.59;4923376;29;20134;-66
2023/11/15 10:18:32;;;;;;;16.75;4.75;;;;;;;10.75;100.00;101262.34;4953912;29;20135;-66
2023/11/15 10:21:20;;;;;;;24.77;4.82;;;;;;;10.76;100.00;101263.19;4937867;29;20052;-65
2023/11/15 10:24:15;;;;;;;19.40;5.53;;;;;;;10.78;100.00;101261.03;4950604;29;20146;-66
2023/11/15 10:27:10;;;;;;;14.55;4.40;;;;;;;10.81;100.00;101260.50;4924255;29;20051;-65
2023/11/15 10:30:00;;;;;;;;;;;;;;;10.83;100.00;101270.06;4938498;29;20513;-65
2023/11/15 10:32:50;;;;;;;14.82;4.43;;;;;;;10.85;100.00;101267.09;4949902;29;19923;-66
2023/11/15 10:35:39;;;;;;;18.10;4.45;;;;;;;10.88;100.00;101261.09;4937318;29;20059;-65
2023/11/15 10:38:28;;;;;;;20.70;3.90;;;;;;;10.90;100.00;101267.13;4949860;29;20180;-65
2023/11/15 10:41:19;;;;;;;17.77;4.75;;;;;;;10.93;100.00;101257.59;4926055;28;20040;-66
2023/11/15 10:44:07;;;;;;;13.20;3.67;;;;;;;10.90;100.00;101274.47;4924790;29;20111;-66
2023/11/15 10:46:59;;;;;;;15.57;4.10;;;;;;;10.89;100.00;101268.19;4924109;29;20043;-66
2023/11/15 10:49:56;;;;;;;15.25;3.90;;;;;;;10.89;100.00;101276.38;4937001;29;20380;-66
2023/11/15 10:52:45;;;;;;;14.52;4.00;;;;;;;10.88;100.00;101272.81;4937700;29;20064;-69
2023/11/15 10:55:33;;;;;;;11.98;3.72;;;;;;;10.89;100.00;101262.72;4256872;28;9999918;-67
2023/11/15 10:58:22;;;;;;;13.68;3.78;;;;;;;10.91;100.00;101271.47;4957914;28;20571;-62
2023/11/15 11:01:12;;;;;;;16.85;3.65;;;;;;;10.88;100.00;101274.72;4938239;29;20047;-65
2023/11/15 11:04:05;;;;;;;16.92;3.78;;;;;;;10.89;100.00;101279.09;4915828;29;20060;-67
2023/11/15 11:07:21;;;;;;;15.88;3.90;;;;;;;10.93;100.00;101279.41;4923231;28;20179;-68
2023/11/15 11:10:26;;;;;;;15.30;3.75;;;;;;;10.96;100.00;101285.16;4947879;29;20552;-65
2023/11/15 11:13:24;;;;;;;18.23;3.97;;;;;;;10.99;100.00;101289.25;4923342;29;20059;-69
2023/11/15 11:16:28;;;;;;;13.88;3.85;;;;;;;11.03;100.00;101282.22;4936145;29;20048;-66
2023/11/15 11:19:25;;;;;;;15.60;3.90;;;;;;;11.08;100.00;101280.34;4932299;29;20047;-67
2023/11/15 11:22:14;;;;;;;15.25;3.85;;;;;;;11.07;100.00;101276.00;4919552;28;20100;-68
2023/11/15 11:25:07;;;;;;;16.08;4.20;;;;;;;11.08;100.00;101266.72;4906393;29;20083;-68
2023/11/15 11:27:56;;;;;;;15.95;3.90;;;;;;;11.11;100.00;101272.72;4934117;28;20055;-67
2023/11/15 11:31:15;;;;;;;15.10;3.95;;;;;;;11.09;100.00;101273.81;4933614;28;20060;-66
2023/11/15 11:34:09;;;;;;;14.25;3.55;;;;;;;11.12;100.00;101271.66;4915368;29;20513;-68
2023/11/15 11:37:00;;;;;;;15.05;3.92;;;;;;;11.14;100.00;101274.97;4915557;29;20147;-66
2023/11/15 11:39:48;;;;;;;12.52;3.58;;;;;;;11.18;100.00;101265.16;4932354;29;20323;-66
2023/11/15 11:42:36;;;;;;;15.40;3.65;;;;;;;11.18;100.00;101265.16;4932615;29;20144;-67
2023/11/15 11:45:27;;;;;;;13.65;3.42;;;;;;;11.16;100.00;101276.34;4880275;29;20054;-66
2023/11/15 11:48:17;;;;;;;16.50;3.28;;;;;;;11.12;100.00;101263.47;4944257;28;20646;-67
2023/11/15 11:51:07;;;;;;;16.92;4.13;;;;;;;11.13;100.00;101271.38;4920130;29;20135;-66
2023/11/15 11:53:55;;;;;;;15.95;3.78;;;;;;;11.14;100.00;101264.06;4919417;29;20051;-66
2023/11/15 11:56:48;;;;;;;14.30;3.25;;;;;;;11.17;100.00;101275.25;4944356;28;20047;-67
2023/11/15 11:59:36;;;;;;;17.42;3.28;;;;;;;11.21;100.00;101270.09;4915826;29;20142;-68
2023/11/15 12:02:36;;;;;;;15.23;3.83;;;;;;;11.26;100.00;101267.41;4930225;29;20044;-68
2023/11/15 12:05:25;;;;;;;12.93;3.30;;;;;;;11.26;100.00;101267.41;4914062;29;20044;-69
2023/11/15 12:08:14;;;;;;;15.63;3.83;;;;;;;11.24;100.00;101275.84;4922060;28;20052;-68
2023/11/15 12:11:04;;;;;;;14.77;3.80;;;;;;;11.24;100.00;101281.31;4894269;29;20509;-65
2023/11/15 12:13:53;;;;;;;13.73;3.38;;;;;;;11.25;100.00;101276.66;4929449;29;20052;-68
2023/11/15 12:16:41;;;;;;;13.73;3.28;;;;;;;11.20;100.00;101279.34;4932007;29;20084;-66
2023/11/15 12:19:42;;;;;;;11.95;2.80;;;;;;;11.16;100.00;101280.94;4932801;28;20078;-67
2023/11/15 12:22:32;;;;;;;15.10;3.42;;;;;;;11.10;100.00;101288.28;4932739;29;20056;-66
2023/11/15 12:25:22;;;;;;;14.55;3.58;;;;;;;11.01;100.00;101293.38;4927019;29;20059;-67
2023/11/15 12:28:11;;;;;;;12.88;3.70;;;;;;;10.94;100.00;101308.31;4913600;29;20139;-67
2023/11/15 12:31:03;;;;;;;11.38;2.47;;;;;;;10.69;100.00;101315.16;4929080;29;20064;-67
2023/11/15 12:33:52;;;;;;;7.05;2.15;;;;;;;10.51;100.00;101305.44;4933211;29;20079;-68
2023/11/15 12:36:42;;;;;;;5.45;1.50;;;;;;;10.43;100.00;101305.88;4920787;29;20152;-67
2023/11/15 12:39:37;;;;;;;4.70;1.30;;;;;;;10.40;100.00;101304.50;4907112;29;20055;-66
2023/11/15 12:42:28;;;;;;;4.70;1.85;;;;;;;10.42;100.00;101301.53;4919540;29;20059;-67
2023/11/15 12:45:34;;;;;;;7.07;2.05;;;;;;;10.46;100.00;101308.09;4907131;29;20155;-67
2023/11/15 12:48:22;;;;;;;3.63;1.52;;;;;;;10.48;100.00;101313.28;4905172;29;20127;-68
2023/11/15 12:51:10;;;;;;;6.10;2.10;;;;;;;10.52;100.00;101312.53;4906749;29;20048;-68